sensor_id;sensor_type;location;lat;lon;timestamp;P1;durP1;ratioP1;P2;durP2;ratioP2
23072;SDS011;34865;51.046;3.732;2022-09-01T00:01:33;6.40;;;1.70;;
23072;SDS011;34865;51.046;3.732;2022-09-01T00:04:02;4.80;;;1.55;;
23072;SDS011;34865;51.046;3.732;2022-09-01T00:06:29;2.67;;;1.60;;
23072;SDS011;34865;51.046;3.732;2022-09-01T00:08:58;2.72;;;1.65;;
23072;SDS011;34865;51.046;3.732;2022-09-01T00:11:26;4.43;;;1.73;;
23072;SDS011;34865;51.046;3.732;2022-09-01T00:13:53;4.35;;;1.90;;
23072;SDS011;34865;51.046;3.732;2022-09-01T00:16:20;5.53;;;1.90;;
23072;SDS011;34865;51.046;3.732;2022-09-01T00:18:47;4.38;;;1.85;;
23072;SDS011;34865;51.046;3.732;2022-09-01T00:21:18;4.75;;;2.20;;
23072;SDS011;34865;51.046;3.732;2022-09-01T00:23:47;5.07;;;2.10;;
23072;SDS011;34865;51.046;3.732;2022-09-01T00:26:13;5.43;;;1.95;;
23072;SDS011;34865;51.046;3.732;2022-09-01T00:28:39;5.47;;;2.22;;
23072;SDS011;34865;51.046;3.732;2022-09-01T00:31:05;7.85;;;2.15;;
23072;SDS011;34865;51.046;3.732;2022-09-01T00:33:36;4.82;;;2.00;;
23072;SDS011;34865;51.046;3.732;2022-09-01T00:36:02;4.35;;;2.00;;
23072;SDS011;34865;51.046;3.732;2022-09-01T00:38:29;5.97;;;2.53;;
23072;SDS011;34865;51.046;3.732;2022-09-01T00:40:55;3.90;;;2.17;;
23072;SDS011;34865;51.046;3.732;2022-09-01T00:43:28;3.55;;;2.38;;
23072;SDS011;34865;51.046;3.732;2022-09-01T00:46:00;2.95;;;2.30;;
23072;SDS011;34865;51.046;3.732;2022-09-01T00:48:27;5.72;;;2.47;;
23072;SDS011;34865;51.046;3.732;2022-09-01T00:50:53;3.47;;;2.30;;
23072;SDS011;34865;51.046;3.732;2022-09-01T00:53:20;5.38;;;2.33;;
23072;SDS011;34865;51.046;3.732;2022-09-01T00:55:45;4.70;;;2.20;;
23072;SDS011;34865;51.046;3.732;2022-09-01T00:58:11;6.85;;;2.00;;
23072;SDS011;34865;51.046;3.732;2022-09-01T01:00:37;4.95;;;2.38;;
23072;SDS011;34865;51.046;3.732;2022-09-01T01:03:05;4.25;;;2.10;;
23072;SDS011;34865;51.046;3.732;2022-09-01T01:05:33;6.43;;;2.28;;
23072;SDS011;34865;51.046;3.732;2022-09-01T01:08:24;7.45;;;2.25;;
23072;SDS011;34865;51.046;3.732;2022-09-01T01:10:58;7.50;;;2.78;;
23072;SDS011;34865;51.046;3.732;2022-09-01T01:13:25;4.30;;;2.00;;
23072;SDS011;34865;51.046;3.732;2022-09-01T01:15:52;9.75;;;2.30;;
23072;SDS011;34865;51.046;3.732;2022-09-01T01:18:18;7.57;;;2.20;;
23072;SDS011;34865;51.046;3.732;2022-09-01T01:20:44;5.20;;;2.25;;
23072;SDS011;34865;51.046;3.732;2022-09-01T01:23:30;2.63;;;1.70;;
23072;SDS011;34865;51.046;3.732;2022-09-01T01:26:05;6.68;;;2.17;;
23072;SDS011;34865;51.046;3.732;2022-09-01T01:28:36;6.75;;;2.50;;
23072;SDS011;34865;51.046;3.732;2022-09-01T01:31:08;8.23;;;2.30;;
23072;SDS011;34865;51.046;3.732;2022-09-01T01:33:49;7.00;;;2.13;;
23072;SDS011;34865;51.046;3.732;2022-09-01T01:38:56;3.22;;;1.90;;
23072;SDS011;34865;51.046;3.732;2022-09-01T01:41:26;6.25;;;2.53;;
23072;SDS011;34865;51.046;3.732;2022-09-01T01:43:55;8.93;;;2.72;;
23072;SDS011;34865;51.046;3.732;2022-09-01T01:46:22;2.80;;;2.00;;
23072;SDS011;34865;51.046;3.732;2022-09-01T01:48:49;3.22;;;1.90;;
23072;SDS011;34865;51.046;3.732;2022-09-01T01:51:16;4.60;;;2.17;;
23072;SDS011;34865;51.046;3.732;2022-09-01T01:53:45;8.60;;;2.28;;
23072;SDS011;34865;51.046;3.732;2022-09-01T01:56:11;4.00;;;1.88;;
23072;SDS011;34865;51.046;3.732;2022-09-01T01:58:38;3.58;;;1.95;;
23072;SDS011;34865;51.046;3.732;2022-09-01T02:01:04;6.47;;;1.90;;
23072;SDS011;34865;51.046;3.732;2022-09-01T02:03:32;5.97;;;1.83;;
23072;SDS011;34865;51.046;3.732;2022-09-01T02:06:02;5.97;;;1.67;;
23072;SDS011;34865;51.046;3.732;2022-09-01T02:08:32;6.85;;;1.98;;
23072;SDS011;34865;51.046;3.732;2022-09-01T02:11:00;5.75;;;1.95;;
23072;SDS011;34865;51.046;3.732;2022-09-01T02:13:27;5.07;;;2.05;;
23072;SDS011;34865;51.046;3.732;2022-09-01T02:16:00;3.92;;;1.73;;
23072;SDS011;34865;51.046;3.732;2022-09-01T02:18:33;3.92;;;1.65;;
23072;SDS011;34865;51.046;3.732;2022-09-01T02:21:05;3.40;;;2.08;;
23072;SDS011;34865;51.046;3.732;2022-09-01T02:23:34;5.32;;;2.17;;
23072;SDS011;34865;51.046;3.732;2022-09-01T02:26:00;5.63;;;2.00;;
23072;SDS011;34865;51.046;3.732;2022-09-01T02:28:26;3.88;;;1.92;;
23072;SDS011;34865;51.046;3.732;2022-09-01T02:30:55;3.90;;;1.60;;
23072;SDS011;34865;51.046;3.732;2022-09-01T02:33:23;5.18;;;2.33;;
23072;SDS011;34865;51.046;3.732;2022-09-01T02:35:52;6.38;;;2.03;;
23072;SDS011;34865;51.046;3.732;2022-09-01T02:38:21;3.35;;;2.10;;
23072;SDS011;34865;51.046;3.732;2022-09-01T02:40:50;4.22;;;1.70;;
23072;SDS011;34865;51.046;3.732;2022-09-01T02:43:18;3.95;;;1.73;;
23072;SDS011;34865;51.046;3.732;2022-09-01T02:45:49;4.78;;;1.95;;
23072;SDS011;34865;51.046;3.732;2022-09-01T02:48:20;4.93;;;1.75;;
23072;SDS011;34865;51.046;3.732;2022-09-01T02:50:50;12.02;;;2.17;;
23072;SDS011;34865;51.046;3.732;2022-09-01T02:53:16;3.53;;;2.00;;
23072;SDS011;34865;51.046;3.732;2022-09-01T02:55:43;6.55;;;2.10;;
23072;SDS011;34865;51.046;3.732;2022-09-01T02:58:09;4.45;;;2.10;;
23072;SDS011;34865;51.046;3.732;2022-09-01T03:00:38;3.30;;;2.13;;
23072;SDS011;34865;51.046;3.732;2022-09-01T03:03:04;6.30;;;2.13;;
23072;SDS011;34865;51.046;3.732;2022-09-01T03:05:30;7.38;;;1.90;;
23072;SDS011;34865;51.046;3.732;2022-09-01T03:07:59;4.13;;;1.95;;
23072;SDS011;34865;51.046;3.732;2022-09-01T03:10:29;7.78;;;2.25;;
23072;SDS011;34865;51.046;3.732;2022-09-01T03:12:59;5.68;;;1.90;;
23072;SDS011;34865;51.046;3.732;2022-09-01T03:15:27;6.78;;;1.83;;
23072;SDS011;34865;51.046;3.732;2022-09-01T03:17:53;3.17;;;2.30;;
23072;SDS011;34865;51.046;3.732;2022-09-01T03:20:18;7.43;;;2.45;;
23072;SDS011;34865;51.046;3.732;2022-09-01T03:22:46;3.10;;;1.98;;
23072;SDS011;34865;51.046;3.732;2022-09-01T03:25:13;6.75;;;2.00;;
23072;SDS011;34865;51.046;3.732;2022-09-01T03:27:39;6.45;;;1.95;;
23072;SDS011;34865;51.046;3.732;2022-09-01T03:30:05;3.83;;;2.03;;
23072;SDS011;34865;51.046;3.732;2022-09-01T03:32:31;5.28;;;1.88;;
23072;SDS011;34865;51.046;3.732;2022-09-01T03:34:57;7.40;;;2.45;;
23072;SDS011;34865;51.046;3.732;2022-09-01T03:37:23;6.05;;;2.20;;
23072;SDS011;34865;51.046;3.732;2022-09-01T03:39:49;5.68;;;2.08;;
23072;SDS011;34865;51.046;3.732;2022-09-01T03:42:15;8.02;;;3.17;;
23072;SDS011;34865;51.046;3.732;2022-09-01T03:44:46;5.97;;;2.35;;
23072;SDS011;34865;51.046;3.732;2022-09-01T03:47:13;4.85;;;2.00;;
23072;SDS011;34865;51.046;3.732;2022-09-01T03:49:39;3.50;;;2.08;;
23072;SDS011;34865;51.046;3.732;2022-09-01T03:52:07;5.78;;;2.20;;
23072;SDS011;34865;51.046;3.732;2022-09-01T03:54:34;4.50;;;2.47;;
23072;SDS011;34865;51.046;3.732;2022-09-01T03:57:00;7.72;;;2.63;;
23072;SDS011;34865;51.046;3.732;2022-09-01T03:59:30;11.18;;;2.47;;
23072;SDS011;34865;51.046;3.732;2022-09-01T04:01:57;8.48;;;2.00;;
23072;SDS011;34865;51.046;3.732;2022-09-01T04:04:24;5.57;;;2.42;;
23072;SDS011;34865;51.046;3.732;2022-09-01T04:06:50;6.90;;;2.55;;
23072;SDS011;34865;51.046;3.732;2022-09-01T04:09:16;4.82;;;2.25;;
23072;SDS011;34865;51.046;3.732;2022-09-01T04:11:42;11.38;;;2.20;;
23072;SDS011;34865;51.046;3.732;2022-09-01T04:14:10;7.03;;;2.78;;
23072;SDS011;34865;51.046;3.732;2022-09-01T04:16:36;7.75;;;2.42;;
23072;SDS011;34865;51.046;3.732;2022-09-01T04:19:21;4.13;;;2.58;;
23072;SDS011;34865;51.046;3.732;2022-09-01T04:21:59;5.15;;;3.15;;
23072;SDS011;34865;51.046;3.732;2022-09-01T04:24:26;7.78;;;2.50;;
23072;SDS011;34865;51.046;3.732;2022-09-01T04:26:54;5.65;;;3.03;;
23072;SDS011;34865;51.046;3.732;2022-09-01T04:29:23;8.68;;;2.28;;
23072;SDS011;34865;51.046;3.732;2022-09-01T04:31:56;5.55;;;2.80;;
23072;SDS011;34865;51.046;3.732;2022-09-01T04:34:27;5.93;;;2.88;;
23072;SDS011;34865;51.046;3.732;2022-09-01T04:37:01;10.45;;;2.83;;
23072;SDS011;34865;51.046;3.732;2022-09-01T04:39:32;6.07;;;2.97;;
23072;SDS011;34865;51.046;3.732;2022-09-01T04:41:57;8.20;;;3.22;;
23072;SDS011;34865;51.046;3.732;2022-09-01T04:44:23;8.02;;;2.80;;
23072;SDS011;34865;51.046;3.732;2022-09-01T04:46:50;11.20;;;2.60;;
23072;SDS011;34865;51.046;3.732;2022-09-01T04:49:17;6.78;;;2.67;;
23072;SDS011;34865;51.046;3.732;2022-09-01T04:51:47;6.20;;;2.53;;
23072;SDS011;34865;51.046;3.732;2022-09-01T04:54:14;4.32;;;2.90;;
23072;SDS011;34865;51.046;3.732;2022-09-01T04:56:41;5.88;;;2.85;;
23072;SDS011;34865;51.046;3.732;2022-09-01T04:59:09;6.35;;;2.92;;
23072;SDS011;34865;51.046;3.732;2022-09-01T05:01:36;7.25;;;2.65;;
23072;SDS011;34865;51.046;3.732;2022-09-01T05:04:17;11.45;;;3.10;;
23072;SDS011;34865;51.046;3.732;2022-09-01T05:06:48;6.70;;;2.78;;
23072;SDS011;34865;51.046;3.732;2022-09-01T05:09:17;7.97;;;2.70;;
23072;SDS011;34865;51.046;3.732;2022-09-01T05:11:44;6.25;;;2.53;;
23072;SDS011;34865;51.046;3.732;2022-09-01T05:14:12;4.10;;;2.60;;
23072;SDS011;34865;51.046;3.732;2022-09-01T05:16:39;4.70;;;2.92;;
23072;SDS011;34865;51.046;3.732;2022-09-01T05:19:08;11.98;;;3.13;;
23072;SDS011;34865;51.046;3.732;2022-09-01T05:21:38;5.75;;;2.88;;
23072;SDS011;34865;51.046;3.732;2022-09-01T05:24:09;5.43;;;2.83;;
23072;SDS011;34865;51.046;3.732;2022-09-01T05:26:36;13.57;;;3.53;;
23072;SDS011;34865;51.046;3.732;2022-09-01T05:29:04;6.60;;;3.28;;
23072;SDS011;34865;51.046;3.732;2022-09-01T05:31:38;5.82;;;3.10;;
23072;SDS011;34865;51.046;3.732;2022-09-01T05:34:05;4.90;;;3.25;;
23072;SDS011;34865;51.046;3.732;2022-09-01T05:36:36;4.60;;;3.10;;
23072;SDS011;34865;51.046;3.732;2022-09-01T05:39:05;6.75;;;3.15;;
23072;SDS011;34865;51.046;3.732;2022-09-01T05:41:31;8.02;;;3.55;;
23072;SDS011;34865;51.046;3.732;2022-09-01T05:44:00;11.88;;;3.80;;
23072;SDS011;34865;51.046;3.732;2022-09-01T05:46:32;12.77;;;3.65;;
23072;SDS011;34865;51.046;3.732;2022-09-01T05:49:00;10.02;;;3.53;;
23072;SDS011;34865;51.046;3.732;2022-09-01T05:51:27;12.35;;;4.18;;
23072;SDS011;34865;51.046;3.732;2022-09-01T05:53:58;8.40;;;3.58;;
23072;SDS011;34865;51.046;3.732;2022-09-01T05:56:25;13.00;;;3.75;;
23072;SDS011;34865;51.046;3.732;2022-09-01T05:58:52;13.80;;;3.63;;
23072;SDS011;34865;51.046;3.732;2022-09-01T06:01:20;9.77;;;3.47;;
23072;SDS011;34865;51.046;3.732;2022-09-01T06:03:53;10.15;;;3.78;;
23072;SDS011;34865;51.046;3.732;2022-09-01T06:06:24;9.20;;;3.85;;
23072;SDS011;34865;51.046;3.732;2022-09-01T06:08:54;11.30;;;4.18;;
23072;SDS011;34865;51.046;3.732;2022-09-01T06:11:22;17.40;;;4.60;;
23072;SDS011;34865;51.046;3.732;2022-09-01T06:13:50;11.70;;;4.05;;
23072;SDS011;34865;51.046;3.732;2022-09-01T06:16:16;9.13;;;4.43;;
23072;SDS011;34865;51.046;3.732;2022-09-01T06:18:43;9.18;;;4.35;;
23072;SDS011;34865;51.046;3.732;2022-09-01T06:21:10;8.10;;;3.97;;
23072;SDS011;34865;51.046;3.732;2022-09-01T06:23:41;9.73;;;4.20;;
23072;SDS011;34865;51.046;3.732;2022-09-01T06:26:14;14.05;;;3.97;;
23072;SDS011;34865;51.046;3.732;2022-09-01T06:29:01;11.13;;;4.55;;
23072;SDS011;34865;51.046;3.732;2022-09-01T06:31:32;7.97;;;4.40;;
23072;SDS011;34865;51.046;3.732;2022-09-01T06:34:03;10.57;;;5.07;;
23072;SDS011;34865;51.046;3.732;2022-09-01T06:36:36;16.50;;;4.80;;
23072;SDS011;34865;51.046;3.732;2022-09-01T06:39:04;10.05;;;5.05;;
23072;SDS011;34865;51.046;3.732;2022-09-01T06:41:31;15.55;;;4.70;;
23072;SDS011;34865;51.046;3.732;2022-09-01T06:43:56;6.82;;;4.15;;
23072;SDS011;34865;51.046;3.732;2022-09-01T06:46:24;8.88;;;5.30;;
23072;SDS011;34865;51.046;3.732;2022-09-01T06:48:52;10.50;;;5.10;;
23072;SDS011;34865;51.046;3.732;2022-09-01T06:51:19;13.63;;;6.68;;
23072;SDS011;34865;51.046;3.732;2022-09-01T06:53:47;15.60;;;6.13;;
23072;SDS011;34865;51.046;3.732;2022-09-01T06:56:17;7.57;;;5.30;;
23072;SDS011;34865;51.046;3.732;2022-09-01T06:58:43;9.32;;;5.47;;
23072;SDS011;34865;51.046;3.732;2022-09-01T07:01:12;16.65;;;6.25;;
23072;SDS011;34865;51.046;3.732;2022-09-01T07:03:42;14.32;;;6.40;;
23072;SDS011;34865;51.046;3.732;2022-09-01T07:06:08;13.85;;;5.38;;
23072;SDS011;34865;51.046;3.732;2022-09-01T07:08:35;12.98;;;6.22;;
23072;SDS011;34865;51.046;3.732;2022-09-01T07:11:04;13.35;;;5.95;;
23072;SDS011;34865;51.046;3.732;2022-09-01T07:13:32;14.15;;;6.03;;
23072;SDS011;34865;51.046;3.732;2022-09-01T07:16:00;18.13;;;5.95;;
23072;SDS011;34865;51.046;3.732;2022-09-01T07:18:28;13.07;;;6.40;;
23072;SDS011;34865;51.046;3.732;2022-09-01T07:20:55;13.77;;;6.50;;
23072;SDS011;34865;51.046;3.732;2022-09-01T07:23:21;10.50;;;6.22;;
23072;SDS011;34865;51.046;3.732;2022-09-01T07:25:49;15.85;;;7.03;;
23072;SDS011;34865;51.046;3.732;2022-09-01T07:28:19;15.77;;;6.20;;
23072;SDS011;34865;51.046;3.732;2022-09-01T07:30:49;15.98;;;7.10;;
23072;SDS011;34865;51.046;3.732;2022-09-01T07:33:18;16.50;;;6.57;;
23072;SDS011;34865;51.046;3.732;2022-09-01T07:35:48;10.98;;;6.68;;
23072;SDS011;34865;51.046;3.732;2022-09-01T07:38:18;13.65;;;7.20;;
23072;SDS011;34865;51.046;3.732;2022-09-01T07:40:47;9.52;;;6.97;;
23072;SDS011;34865;51.046;3.732;2022-09-01T07:43:18;15.95;;;6.82;;
23072;SDS011;34865;51.046;3.732;2022-09-01T07:45:49;12.77;;;7.07;;
23072;SDS011;34865;51.046;3.732;2022-09-01T07:48:17;11.30;;;7.50;;
23072;SDS011;34865;51.046;3.732;2022-09-01T07:50:47;9.93;;;6.60;;
23072;SDS011;34865;51.046;3.732;2022-09-01T07:53:17;13.38;;;6.45;;
23072;SDS011;34865;51.046;3.732;2022-09-01T07:56:06;11.10;;;6.43;;
23072;SDS011;34865;51.046;3.732;2022-09-01T07:58:34;12.38;;;7.15;;
23072;SDS011;34865;51.046;3.732;2022-09-01T08:01:01;12.85;;;7.38;;
23072;SDS011;34865;51.046;3.732;2022-09-01T08:03:31;12.32;;;7.38;;
23072;SDS011;34865;51.046;3.732;2022-09-01T08:06:01;12.00;;;7.35;;
23072;SDS011;34865;51.046;3.732;2022-09-01T08:08:32;19.27;;;7.40;;
23072;SDS011;34865;51.046;3.732;2022-09-01T08:10:58;10.80;;;6.32;;
23072;SDS011;34865;51.046;3.732;2022-09-01T08:13:24;12.23;;;6.68;;
23072;SDS011;34865;51.046;3.732;2022-09-01T08:15:50;13.77;;;6.43;;
23072;SDS011;34865;51.046;3.732;2022-09-01T08:18:16;11.32;;;6.13;;
23072;SDS011;34865;51.046;3.732;2022-09-01T08:20:42;10.32;;;6.78;;
23072;SDS011;34865;51.046;3.732;2022-09-01T08:23:10;14.38;;;6.95;;
23072;SDS011;34865;51.046;3.732;2022-09-01T08:25:38;8.63;;;5.75;;
23072;SDS011;34865;51.046;3.732;2022-09-01T08:28:06;10.50;;;6.32;;
23072;SDS011;34865;51.046;3.732;2022-09-01T08:30:32;11.02;;;6.28;;
23072;SDS011;34865;51.046;3.732;2022-09-01T08:33:00;9.57;;;6.05;;
23072;SDS011;34865;51.046;3.732;2022-09-01T08:35:26;10.65;;;6.18;;
23072;SDS011;34865;51.046;3.732;2022-09-01T08:37:53;12.18;;;6.20;;
23072;SDS011;34865;51.046;3.732;2022-09-01T08:40:20;14.82;;;6.70;;
23072;SDS011;34865;51.046;3.732;2022-09-01T08:45:30;11.35;;;6.13;;
23072;SDS011;34865;51.046;3.732;2022-09-01T08:48:40;16.75;;;6.50;;
23072;SDS011;34865;51.046;3.732;2022-09-01T08:54:02;9.85;;;6.35;;
23072;SDS011;34865;51.046;3.732;2022-09-01T08:56:34;10.15;;;5.97;;
23072;SDS011;34865;51.046;3.732;2022-09-01T08:59:03;9.45;;;5.45;;
23072;SDS011;34865;51.046;3.732;2022-09-01T09:04:12;12.23;;;5.57;;
23072;SDS011;34865;51.046;3.732;2022-09-01T09:09:17;9.07;;;5.78;;
23072;SDS011;34865;51.046;3.732;2022-09-01T09:14:55;10.63;;;6.88;;
23072;SDS011;34865;51.046;3.732;2022-09-01T09:17:51;12.85;;;5.50;;
23072;SDS011;34865;51.046;3.732;2022-09-01T09:20:27;9.73;;;5.75;;
23072;SDS011;34865;51.046;3.732;2022-09-01T09:22:55;16.58;;;5.47;;
23072;SDS011;34865;51.046;3.732;2022-09-01T09:25:21;10.02;;;6.15;;
23072;SDS011;34865;51.046;3.732;2022-09-01T09:27:48;10.77;;;5.50;;
23072;SDS011;34865;51.046;3.732;2022-09-01T09:30:20;7.80;;;4.97;;
23072;SDS011;34865;51.046;3.732;2022-09-01T09:35:26;9.75;;;5.35;;
23072;SDS011;34865;51.046;3.732;2022-09-01T09:40:58;11.90;;;5.50;;
23072;SDS011;34865;51.046;3.732;2022-09-01T09:43:26;9.00;;;5.15;;
23072;SDS011;34865;51.046;3.732;2022-09-01T09:48:45;10.98;;;5.88;;
23072;SDS011;34865;51.046;3.732;2022-09-01T09:51:16;9.63;;;6.10;;
23072;SDS011;34865;51.046;3.732;2022-09-01T09:53:46;11.45;;;4.85;;
23072;SDS011;34865;51.046;3.732;2022-09-01T09:56:22;6.18;;;5.57;;
23072;SDS011;34865;51.046;3.732;2022-09-01T09:58:49;13.15;;;5.35;;
23072;SDS011;34865;51.046;3.732;2022-09-01T10:03:54;7.93;;;4.65;;
23072;SDS011;34865;51.046;3.732;2022-09-01T10:06:37;6.50;;;4.60;;
23072;SDS011;34865;51.046;3.732;2022-09-01T10:11:56;10.32;;;4.53;;
23072;SDS011;34865;51.046;3.732;2022-09-01T10:14:32;6.95;;;5.00;;
23072;SDS011;34865;51.046;3.732;2022-09-01T10:17:16;8.75;;;4.10;;
23072;SDS011;34865;51.046;3.732;2022-09-01T10:19:57;3.67;;;3.35;;
23072;SDS011;34865;51.046;3.732;2022-09-01T10:22:30;5.68;;;3.88;;
23072;SDS011;34865;51.046;3.732;2022-09-01T10:24:57;7.65;;;3.15;;
23072;SDS011;34865;51.046;3.732;2022-09-01T10:27:24;9.63;;;4.07;;
23072;SDS011;34865;51.046;3.732;2022-09-01T10:30:05;7.72;;;2.90;;
23072;SDS011;34865;51.046;3.732;2022-09-01T10:32:53;7.55;;;4.32;;
23072;SDS011;34865;51.046;3.732;2022-09-01T10:35:26;6.50;;;4.00;;
23072;SDS011;34865;51.046;3.732;2022-09-01T10:37:58;6.03;;;3.60;;
23072;SDS011;34865;51.046;3.732;2022-09-01T10:42:55;5.32;;;3.13;;
23072;SDS011;34865;51.046;3.732;2022-09-01T10:45:33;4.88;;;3.30;;
23072;SDS011;34865;51.046;3.732;2022-09-01T10:50:46;5.63;;;3.40;;
23072;SDS011;34865;51.046;3.732;2022-09-01T10:56:02;7.32;;;3.42;;
23072;SDS011;34865;51.046;3.732;2022-09-01T11:04:19;4.30;;;2.88;;
23072;SDS011;34865;51.046;3.732;2022-09-01T11:09:26;9.27;;;3.78;;
23072;SDS011;34865;51.046;3.732;2022-09-01T11:30:57;7.15;;;3.15;;
23072;SDS011;34865;51.046;3.732;2022-09-01T11:36:22;4.53;;;2.83;;
23072;SDS011;34865;51.046;3.732;2022-09-01T11:41:51;5.05;;;2.35;;
23072;SDS011;34865;51.046;3.732;2022-09-01T11:47:20;4.03;;;3.03;;
23072;SDS011;34865;51.046;3.732;2022-09-01T11:52:24;7.85;;;3.38;;
23072;SDS011;34865;51.046;3.732;2022-09-01T11:54:54;8.65;;;2.88;;
23072;SDS011;34865;51.046;3.732;2022-09-01T11:57:30;6.28;;;2.92;;
23072;SDS011;34865;51.046;3.732;2022-09-01T12:00:02;3.88;;;2.63;;
23072;SDS011;34865;51.046;3.732;2022-09-01T12:02:34;4.30;;;2.45;;
23072;SDS011;34865;51.046;3.732;2022-09-01T12:05:22;5.97;;;2.58;;
23072;SDS011;34865;51.046;3.732;2022-09-01T12:07:48;9.18;;;2.70;;
23072;SDS011;34865;51.046;3.732;2022-09-01T12:10:35;5.95;;;2.20;;
23072;SDS011;34865;51.046;3.732;2022-09-01T12:13:04;7.65;;;2.80;;
23072;SDS011;34865;51.046;3.732;2022-09-01T12:15:32;6.00;;;2.50;;
23072;SDS011;34865;51.046;3.732;2022-09-01T12:18:35;3.97;;;2.70;;
23072;SDS011;34865;51.046;3.732;2022-09-01T12:20:59;8.25;;;2.70;;
23072;SDS011;34865;51.046;3.732;2022-09-01T12:23:28;6.13;;;2.28;;
23072;SDS011;34865;51.046;3.732;2022-09-01T12:26:03;8.93;;;2.72;;
23072;SDS011;34865;51.046;3.732;2022-09-01T12:28:34;4.10;;;2.53;;
23072;SDS011;34865;51.046;3.732;2022-09-01T12:31:02;6.32;;;2.38;;
23072;SDS011;34865;51.046;3.732;2022-09-01T12:33:31;4.75;;;2.38;;
23072;SDS011;34865;51.046;3.732;2022-09-01T12:36:14;4.00;;;2.60;;
23072;SDS011;34865;51.046;3.732;2022-09-01T12:38:46;3.80;;;2.63;;
23072;SDS011;34865;51.046;3.732;2022-09-01T12:41:27;9.80;;;2.42;;
23072;SDS011;34865;51.046;3.732;2022-09-01T12:46:56;3.80;;;2.30;;
23072;SDS011;34865;51.046;3.732;2022-09-01T12:49:34;7.63;;;3.20;;
23072;SDS011;34865;51.046;3.732;2022-09-01T12:54:43;5.93;;;2.92;;
23072;SDS011;34865;51.046;3.732;2022-09-01T12:57:31;8.10;;;2.70;;
23072;SDS011;34865;51.046;3.732;2022-09-01T13:02:50;5.95;;;2.47;;
23072;SDS011;34865;51.046;3.732;2022-09-01T13:05:41;10.35;;;3.28;;
23072;SDS011;34865;51.046;3.732;2022-09-01T13:08:16;4.70;;;2.30;;
23072;SDS011;34865;51.046;3.732;2022-09-01T13:10:47;6.90;;;3.35;;
23072;SDS011;34865;51.046;3.732;2022-09-01T13:13:17;10.15;;;2.97;;
23072;SDS011;34865;51.046;3.732;2022-09-01T13:15:48;12.27;;;3.03;;
23072;SDS011;34865;51.046;3.732;2022-09-01T13:18:17;7.40;;;2.67;;
23072;SDS011;34865;51.046;3.732;2022-09-01T13:20:45;10.50;;;2.83;;
23072;SDS011;34865;51.046;3.732;2022-09-01T13:23:11;9.23;;;3.00;;
23072;SDS011;34865;51.046;3.732;2022-09-01T13:25:38;5.55;;;2.40;;
23072;SDS011;34865;51.046;3.732;2022-09-01T13:28:05;2.97;;;2.35;;
23072;SDS011;34865;51.046;3.732;2022-09-01T13:30:31;7.07;;;2.83;;
23072;SDS011;34865;51.046;3.732;2022-09-01T13:32:57;4.53;;;2.45;;
23072;SDS011;34865;51.046;3.732;2022-09-01T13:35:23;4.00;;;2.47;;
23072;SDS011;34865;51.046;3.732;2022-09-01T13:37:50;3.90;;;2.33;;
23072;SDS011;34865;51.046;3.732;2022-09-01T13:40:19;6.97;;;2.90;;
23072;SDS011;34865;51.046;3.732;2022-09-01T13:42:47;9.40;;;2.50;;
23072;SDS011;34865;51.046;3.732;2022-09-01T13:45:14;7.88;;;2.40;;
23072;SDS011;34865;51.046;3.732;2022-09-01T13:47:43;5.65;;;2.22;;
23072;SDS011;34865;51.046;3.732;2022-09-01T13:50:10;5.60;;;2.15;;
23072;SDS011;34865;51.046;3.732;2022-09-01T13:52:38;4.28;;;2.70;;
23072;SDS011;34865;51.046;3.732;2022-09-01T13:55:06;4.47;;;2.55;;
23072;SDS011;34865;51.046;3.732;2022-09-01T13:57:35;5.55;;;2.10;;
23072;SDS011;34865;51.046;3.732;2022-09-01T14:00:02;7.97;;;2.28;;
23072;SDS011;34865;51.046;3.732;2022-09-01T14:02:29;3.85;;;2.28;;
23072;SDS011;34865;51.046;3.732;2022-09-01T14:04:55;11.38;;;3.05;;
23072;SDS011;34865;51.046;3.732;2022-09-01T14:07:21;4.40;;;2.17;;
23072;SDS011;34865;51.046;3.732;2022-09-01T14:09:47;3.15;;;2.05;;
23072;SDS011;34865;51.046;3.732;2022-09-01T14:12:12;6.82;;;2.58;;
23072;SDS011;34865;51.046;3.732;2022-09-01T14:14:38;7.07;;;2.80;;
23072;SDS011;34865;51.046;3.732;2022-09-01T14:17:04;3.30;;;2.47;;
23072;SDS011;34865;51.046;3.732;2022-09-01T14:19:29;5.13;;;2.15;;
23072;SDS011;34865;51.046;3.732;2022-09-01T14:21:55;7.05;;;2.42;;
23072;SDS011;34865;51.046;3.732;2022-09-01T14:24:21;5.85;;;2.03;;
23072;SDS011;34865;51.046;3.732;2022-09-01T14:26:47;6.47;;;2.25;;
23072;SDS011;34865;51.046;3.732;2022-09-01T14:29:14;3.63;;;2.42;;
23072;SDS011;34865;51.046;3.732;2022-09-01T14:31:40;2.83;;;2.30;;
23072;SDS011;34865;51.046;3.732;2022-09-01T14:34:07;7.13;;;2.20;;
23072;SDS011;34865;51.046;3.732;2022-09-01T14:36:36;5.80;;;2.17;;
23072;SDS011;34865;51.046;3.732;2022-09-01T14:39:02;3.28;;;2.17;;
23072;SDS011;34865;51.046;3.732;2022-09-01T14:41:29;5.20;;;2.45;;
23072;SDS011;34865;51.046;3.732;2022-09-01T14:43:55;3.88;;;2.65;;
23072;SDS011;34865;51.046;3.732;2022-09-01T14:46:26;8.10;;;2.03;;
23072;SDS011;34865;51.046;3.732;2022-09-01T14:48:53;5.13;;;2.40;;
23072;SDS011;34865;51.046;3.732;2022-09-01T14:51:21;6.78;;;2.35;;
23072;SDS011;34865;51.046;3.732;2022-09-01T14:53:51;6.53;;;2.40;;
23072;SDS011;34865;51.046;3.732;2022-09-01T14:56:18;4.32;;;2.15;;
23072;SDS011;34865;51.046;3.732;2022-09-01T14:58:45;4.72;;;2.50;;
23072;SDS011;34865;51.046;3.732;2022-09-01T15:01:16;5.22;;;2.50;;
23072;SDS011;34865;51.046;3.732;2022-09-01T15:03:44;7.20;;;2.88;;
23072;SDS011;34865;51.046;3.732;2022-09-01T15:06:14;4.90;;;2.47;;
23072;SDS011;34865;51.046;3.732;2022-09-01T15:08:41;3.70;;;2.65;;
23072;SDS011;34865;51.046;3.732;2022-09-01T15:11:11;6.50;;;2.78;;
23072;SDS011;34865;51.046;3.732;2022-09-01T15:13:41;10.57;;;2.78;;
23072;SDS011;34865;51.046;3.732;2022-09-01T15:16:14;6.25;;;2.47;;
23072;SDS011;34865;51.046;3.732;2022-09-01T15:18:42;6.55;;;2.20;;
23072;SDS011;34865;51.046;3.732;2022-09-01T15:21:07;3.15;;;2.45;;
23072;SDS011;34865;51.046;3.732;2022-09-01T15:23:41;9.80;;;2.97;;
23072;SDS011;34865;51.046;3.732;2022-09-01T15:26:07;5.75;;;2.90;;
23072;SDS011;34865;51.046;3.732;2022-09-01T15:28:33;6.93;;;3.00;;
23072;SDS011;34865;51.046;3.732;2022-09-01T15:30:58;5.18;;;2.50;;
23072;SDS011;34865;51.046;3.732;2022-09-01T15:33:24;6.20;;;2.72;;
23072;SDS011;34865;51.046;3.732;2022-09-01T15:35:50;2.95;;;2.58;;
23072;SDS011;34865;51.046;3.732;2022-09-01T15:38:16;4.85;;;2.45;;
23072;SDS011;34865;51.046;3.732;2022-09-01T15:40:43;6.22;;;2.38;;
23072;SDS011;34865;51.046;3.732;2022-09-01T15:43:10;3.75;;;2.35;;
23072;SDS011;34865;51.046;3.732;2022-09-01T15:45:35;6.10;;;2.08;;
23072;SDS011;34865;51.046;3.732;2022-09-01T15:48:02;2.90;;;2.58;;
23072;SDS011;34865;51.046;3.732;2022-09-01T15:50:28;2.72;;;2.40;;
23072;SDS011;34865;51.046;3.732;2022-09-01T15:52:58;5.18;;;2.47;;
23072;SDS011;34865;51.046;3.732;2022-09-01T15:55:42;6.32;;;3.58;;
23072;SDS011;34865;51.046;3.732;2022-09-01T15:58:10;7.10;;;2.45;;
23072;SDS011;34865;51.046;3.732;2022-09-01T16:00:38;5.03;;;2.70;;
23072;SDS011;34865;51.046;3.732;2022-09-01T16:03:05;4.13;;;2.35;;
23072;SDS011;34865;51.046;3.732;2022-09-01T16:05:31;3.97;;;2.50;;
23072;SDS011;34865;51.046;3.732;2022-09-01T16:07:59;8.05;;;2.53;;
23072;SDS011;34865;51.046;3.732;2022-09-01T16:10:25;5.60;;;2.83;;
23072;SDS011;34865;51.046;3.732;2022-09-01T16:12:53;7.55;;;2.47;;
23072;SDS011;34865;51.046;3.732;2022-09-01T16:15:20;5.60;;;2.40;;
23072;SDS011;34865;51.046;3.732;2022-09-01T16:23:24;4.13;;;2.50;;
23072;SDS011;34865;51.046;3.732;2022-09-01T16:25:58;3.08;;;2.35;;
23072;SDS011;34865;51.046;3.732;2022-09-01T16:28:29;9.23;;;2.45;;
23072;SDS011;34865;51.046;3.732;2022-09-01T16:31:03;8.27;;;2.78;;